Time;durP1;ratioP1;P1;durP2;ratioP2;P2;SDS_P1;SDS_P2;PMS_P1;PMS_P2;Temp;Humidity;BMP_temperature;BMP_pressure;BME280_temperature;BME280_humidity;BME280_pressure;Samples;Min_cycle;Max_cycle;Signal;HPM_P1;HPM_P2
2023/09/27 00:54:17;;;;;;;8.90;8.00;;;;;;;;;;6291590;22;20524;-77
2023/09/27 00:57:08;;;;;;;9.30;7.20;;;;;;;;;;6380248;22;20458;-79
2023/09/27 00:59:46;;;;;;;8.73;7.90;;;;;;;;;;6381984;22;20437;-77
2023/09/27 01:02:22;;;;;;;7.93;7.13;;;;;;;;;;6354537;22;20413;-77
2023/09/27 01:04:52;;;;;;;8.13;7.33;;;;;;;;;;6383708;22;20419;-77
2023/09/27 01:07:37;;;;;;;8.80;7.20;;;;;;;;;;6381654;22;20442;-76
2023/09/27 01:10:40;;;;;;;9.73;8.20;;;;;;;;;;6376504;22;20409;-75
2023/09/27 01:13:47;;;;;;;9.43;8.20;;;;;;;;;;6379425;22;20417;-77
2023/09/27 01:16:15;;;;;;;8.23;7.43;;;;;;;;;;6386840;22;20497;-77
2023/09/27 01:18:54;;;;;;;7.00;6.30;;;;;;;;;;6388198;22;20422;-78
2023/09/27 01:21:22;;;;;;;8.33;7.43;;;;;;;;;;6380601;22;20690;-77
2023/09/27 01:24:01;;;;;;;8.63;7.73;;;;;;;;;;6379230;22;20435;-77
2023/09/27 01:26:31;;;;;;;8.60;7.70;;;;;;;;;;6379904;22;20785;-77
2023/09/27 01:29:01;;;;;;;9.60;7.50;;;;;;;;;;6379605;22;20494;-77
2023/09/27 01:31:43;;;;;;;9.13;8.17;;;;;;;;;;6379020;22;20425;-77
2023/09/27 01:34:11;;;;;;;8.37;6.83;;;;;;;;;;6378206;22;20473;-77
2023/09/27 01:36:41;;;;;;;9.80;7.70;;;;;;;;;;6381170;22;20408;-77
2023/09/27 01:39:14;;;;;;;8.60;7.70;;;;;;;;;;6381298;22;20484;-77
2023/09/27 01:41:48;;;;;;;9.83;7.43;;;;;;;;;;6379130;22;20418;-76
2023/09/27 01:44:44;;;;;;;9.17;8.27;;;;;;;;;;6376892;22;20409;-78
2023/09/27 01:47:30;;;;;;;8.23;7.40;;;;;;;;;;6377475;22;20452;-75
2023/09/27 01:50:12;;;;;;;8.90;7.20;;;;;;;;;;6375496;22;20477;-77
2023/09/27 01:52:42;;;;;;;14.30;9.00;;;;;;;;;;6380473;22;20522;-78
2023/09/27 01:55:47;;;;;;;8.60;7.00;;;;;;;;;;6378026;22;20484;-77
2023/09/27 01:58:22;;;;;;;9.73;8.73;;;;;;;;;;6381720;22;20478;-76
2023/09/27 02:00:54;;;;;;;8.70;7.53;;;;;;;;;;6379689;22;20466;-77
2023/09/27 02:03:23;;;;;;;9.17;8.17;;;;;;;;;;6374714;22;20488;-78
2023/09/27 02:05:59;;;;;;;10.80;7.57;;;;;;;;;;6374725;22;20441;-78
2023/09/27 02:08:44;;;;;;;10.83;7.37;;;;;;;;;;6374382;22;20809;-78
2023/09/27 02:11:12;;;;;;;8.63;7.40;;;;;;;;;;6376128;22;20404;-77
2023/09/27 02:19:25;;;;;;;8.33;7.53;;;;;;;;;;6378214;22;20474;-78
2023/09/27 02:21:59;;;;;;;8.10;7.00;;;;;;;;;;6325824;22;20675;-77
2023/09/27 02:24:34;;;;;;;8.63;7.73;;;;;;;;;;6373894;22;20473;-78
2023/09/27 02:27:11;;;;;;;9.90;8.50;;;;;;;;;;6353318;22;20868;-78
2023/09/27 02:30:13;;;;;;;11.27;8.67;;;;;;;;;;6353404;22;20421;-77
2023/09/27 02:33:00;;;;;;;8.53;7.73;;;;;;;;;;6379424;22;20416;-76
2023/09/27 02:38:39;;;;;;;9.30;7.73;;;;;;;;;;6381397;22;20402;-77
2023/09/27 02:41:09;;;;;;;8.27;7.40;;;;;;;;;;6355614;22;20899;-77
2023/09/27 02:51:40;;;;;;;9.50;7.83;;;;;;;;;;6296764;22;20465;-77
2023/09/27 04:17:51;;;;;;;12.77;9.60;;;;;;;;;;6332100;22;20437;-80
2023/09/27 04:20:21;;;;;;;10.60;8.60;;;;;;;;;;6387005;22;20172;-81
2023/09/27 04:22:51;;;;;;;12.10;9.30;;;;;;;;;;6385345;22;20504;-81
2023/09/27 04:25:21;;;;;;;11.20;8.90;;;;;;;;;;6384349;22;20401;-80
2023/09/27 04:30:34;;;;;;;11.03;9.60;;;;;;;;;;6384485;22;20429;-80
2023/09/27 04:33:08;;;;;;;10.00;9.10;;;;;;;;;;6353591;22;20494;-82
2023/09/27 21:02:57;;;;;;;13.00;9.80;;;;;;;;;;6248666;22;20468;-76
2023/09/27 21:05:47;;;;;;;10.97;9.00;;;;;;;;;;6382647;22;20422;-78
2023/09/27 21:08:30;;;;;;;11.33;9.43;;;;;;;;;;6381249;22;20520;-78
2023/09/27 21:13:58;;;;;;;12.37;8.60;;;;;;;;;;6326640;22;20413;-75
2023/09/27 21:16:39;;;;;;;14.40;10.30;;;;;;;;;;6381062;22;20958;-77
2023/09/27 21:22:18;;;;;;;11.50;10.13;;;;;;;;;;6348381;22;20415;-78
2023/09/27 21:27:38;;;;;;;12.40;11.03;;;;;;;;;;6347277;22;20434;-77
2023/09/27 21:30:10;;;;;;;13.53;11.00;;;;;;;;;;6349160;22;20432;-76
2023/09/27 21:35:43;;;;;;;11.37;9.20;;;;;;;;;;6364121;22;20531;-76
2023/09/27 22:08:33;;;;;;;9.80;8.57;;;;;;;;;;6375261;22;20882;-76
2023/09/27 22:11:41;;;;;;;7.90;7.10;;;;;;;;;;6378276;22;20497;-77
2023/09/27 22:17:49;;;;;;;7.33;6.60;;;;;;;;;;6300029;22;20405;-76
2023/09/27 22:39:51;;;;;;;10.60;8.07;;;;;;;;;;5864513;23;20399;-77
2023/09/27 22:48:14;;;;;;;10.50;8.03;;;;;;;;;;5788592;23;20472;-77
2023/09/27 22:57:08;;;;;;;10.80;8.93;;;;;;;;;;5031183;28;20565;-77
2023/09/27 22:59:53;;;;;;;14.23;10.60;;;;;;;;;;5040185;28;20482;-78
2023/09/27 23:02:48;;;;;;;10.90;8.40;;;;;;;;;;5039567;28;20493;-78
2023/09/27 23:19:17;;;;;;;10.40;7.20;;;;;;;;;;5025831;22;20482;-78
2023/09/27 23:29:23;;;;;;;9.23;8.23;;;;;;;;;;4974961;28;20485;-77
2023/09/27 23:58:51;;;;;;;8.00;6.67;;;;;;;;;;4967362;29;20454;-77
